createdAt,value
2018-11-02T00:00:07.826Z,8.01
2018-11-02T00:01:06.830Z,8.01
2018-11-02T00:02:09.168Z,8.03
2018-11-02T00:03:06.868Z,8.03
2018-11-02T00:04:07.226Z,8.02
2018-11-02T00:05:06.708Z,8
2018-11-02T00:06:07.345Z,8.01
2018-11-02T00:07:06.921Z,7.98
2018-11-02T00:08:06.723Z,7.97
2018-11-02T00:09:06.794Z,7.94
2018-11-02T00:10:06.910Z,7.97
2018-11-02T00:11:06.908Z,7.94
2018-11-02T00:12:09.495Z,7.92
2018-11-02T00:13:06.959Z,7.93
2018-11-02T00:14:06.868Z,7.93
2018-11-02T00:15:06.751Z,7.93
2018-11-02T00:16:06.750Z,7.92
2018-11-02T00:17:06.869Z,7.92
2018-11-02T00:18:07.124Z,7.89
2018-11-02T00:19:06.740Z,7.91
2018-11-02T00:20:07.129Z,7.9
2018-11-02T00:21:07.031Z,7.87
2018-11-02T00:22:07.748Z,7.86
2018-11-02T00:23:06.797Z,7.85
2018-11-02T00:24:06.913Z,7.86
2018-11-02T00:25:06.746Z,7.86
2018-11-02T00:26:06.807Z,7.87
2018-11-02T00:27:06.953Z,7.84
2018-11-02T00:28:06.821Z,7.84
2018-11-02T00:29:06.890Z,7.81
2018-11-02T00:30:06.864Z,7.8
2018-11-02T00:31:07.008Z,7.79
2018-11-02T00:32:08.493Z,7.78
2018-11-02T00:33:07.075Z,7.78
2018-11-02T00:34:06.796Z,7.78
2018-11-02T00:35:06.779Z,7.75
2018-11-02T00:36:06.917Z,7.71
2018-11-02T00:37:06.938Z,7.69
2018-11-02T00:38:06.971Z,7.7
2018-11-02T00:39:07.078Z,7.67
2018-11-02T00:40:06.776Z,7.67
2018-11-02T00:41:07.027Z,7.67
2018-11-02T00:42:06.772Z,7.47
2018-11-02T00:43:09.108Z,7.42
2018-11-02T00:44:08.062Z,7.42
2018-11-02T00:45:06.746Z,7.46
2018-11-02T00:46:06.900Z,7.48
2018-11-02T00:47:06.933Z,7.49
2018-11-02T00:48:06.772Z,7.49
2018-11-02T00:49:06.841Z,7.5
2018-11-02T00:50:06.980Z,7.5
2018-11-02T00:51:06.817Z,7.52
2018-11-02T00:52:06.763Z,7.5
2018-11-02T00:53:07.893Z,7.53
2018-11-02T00:54:06.769Z,7.5
2018-11-02T00:55:07.052Z,7.51
2018-11-02T00:56:06.675Z,7.49
2018-11-02T00:57:06.735Z,7.5
2018-11-02T00:58:06.664Z,7.51
2018-11-02T00:59:06.806Z,7.5
2018-11-02T01:00:07.006Z,7.51
2018-11-02T01:01:07.033Z,7.49
2018-11-02T01:02:06.787Z,7.49
2018-11-02T01:03:07.531Z,7.49
2018-11-02T01:04:07.082Z,7.51
2018-11-02T01:05:06.679Z,7.51
2018-11-02T01:06:06.703Z,7.54
2018-11-02T01:07:06.662Z,7.54
2018-11-02T01:08:06.699Z,7.54
2018-11-02T01:09:06.887Z,7.54
2018-11-02T01:10:06.680Z,7.53
2018-11-02T01:11:06.684Z,7.52
2018-11-02T01:12:06.659Z,7.54
2018-11-02T01:13:07.269Z,7.54
2018-11-02T01:14:06.626Z,7.55
2018-11-02T01:15:06.701Z,7.55
2018-11-02T01:16:06.616Z,7.54
2018-11-02T01:17:06.697Z,7.54
2018-11-02T01:18:06.620Z,7.54
2018-11-02T01:19:06.920Z,7.53
2018-11-02T01:20:06.640Z,7.51
2018-11-02T01:21:06.780Z,7.53
2018-11-02T01:22:06.852Z,7.54
2018-11-02T01:23:06.625Z,7.55
2018-11-02T01:24:06.615Z,7.52
2018-11-02T01:25:06.677Z,7.52
2018-11-02T01:26:06.720Z,7.49
2018-11-02T01:27:06.856Z,7.51
2018-11-02T01:28:06.631Z,7.48
2018-11-02T01:29:06.793Z,7.47
2018-11-02T01:30:06.857Z,7.47
2018-11-02T01:31:06.935Z,7.45
2018-11-02T01:32:06.937Z,7.48
2018-11-02T01:33:06.696Z,7.47
2018-11-02T01:34:09.137Z,7.46
2018-11-02T01:35:06.647Z,7.47
2018-11-02T01:36:06.655Z,7.47
2018-11-02T01:37:06.662Z,7.46
2018-11-02T01:38:06.959Z,7.45
2018-11-02T01:39:06.608Z,7.43
2018-11-02T01:40:06.690Z,7.44
2018-11-02T01:41:06.719Z,7.41
2018-11-02T01:42:06.756Z,7.42
2018-11-02T01:43:06.779Z,7.4
2018-11-02T01:44:09.100Z,7.36
2018-11-02T01:45:06.709Z,7.35
2018-11-02T01:46:06.698Z,7.32
2018-11-02T01:47:06.637Z,7.29
2018-11-02T01:48:06.601Z,7.26
2018-11-02T01:49:06.621Z,7.26
2018-11-02T01:50:06.617Z,7.24
2018-11-02T01:51:06.992Z,7.24
2018-11-02T01:52:07.410Z,7.24
2018-11-02T01:53:07.036Z,7.24
2018-11-02T01:54:07.808Z,7.24
2018-11-02T01:55:06.630Z,7.24
2018-11-02T01:56:06.578Z,7.24
2018-11-02T01:57:06.552Z,7.24
2018-11-02T01:58:06.776Z,7.24
2018-11-02T01:59:06.661Z,7.23
2018-11-02T02:00:06.612Z,7.22
2018-11-02T02:01:06.631Z,7.24
2018-11-02T02:02:06.554Z,7.23
2018-11-02T02:03:06.726Z,7.24
2018-11-02T02:04:06.621Z,7.25
2018-11-02T02:05:06.595Z,7.25
2018-11-02T02:06:06.559Z,7.23
2018-11-02T02:07:07.371Z,7.22
2018-11-02T02:08:06.649Z,7.22
2018-11-02T02:09:06.649Z,7.19
2018-11-02T02:10:06.615Z,7.21
2018-11-02T02:11:07.341Z,7.2
2018-11-02T02:12:06.590Z,7.18
2018-11-02T02:13:07.467Z,7.17
2018-11-02T02:14:06.657Z,7.19
2018-11-02T02:15:08.616Z,7.19
2018-11-02T02:16:06.762Z,7.21
2018-11-02T02:17:06.935Z,7.19
2018-11-02T02:18:06.660Z,7.21
2018-11-02T02:19:06.738Z,7.21
2018-11-02T02:20:06.664Z,7.2
2018-11-02T02:21:06.607Z,7.19
2018-11-02T02:22:06.564Z,7.19
2018-11-02T02:23:06.661Z,7.18
2018-11-02T02:24:06.689Z,7.18
2018-11-02T02:25:07.642Z,7.2
2018-11-02T02:26:06.922Z,7.21
2018-11-02T02:27:06.644Z,7.22
2018-11-02T02:28:06.549Z,7.23
2018-11-02T02:29:06.673Z,7.23
2018-11-02T02:30:06.785Z,7.25
2018-11-02T02:31:06.665Z,7.26
2018-11-02T02:32:06.755Z,7.26
2018-11-02T02:33:06.521Z,7.27
2018-11-02T02:34:06.950Z,7.28
2018-11-02T02:35:06.755Z,7.28
2018-11-02T02:36:06.691Z,7.28
2018-11-02T02:37:06.725Z,7.29
2018-11-02T02:38:06.795Z,7.28
2018-11-02T02:39:06.531Z,7.28
2018-11-02T02:40:06.924Z,7.27
2018-11-02T02:41:06.833Z,7.28
2018-11-02T02:42:06.503Z,7.27
2018-11-02T02:43:06.498Z,7.26
2018-11-02T02:44:07.004Z,7.26
2018-11-02T02:45:06.527Z,7.24
2018-11-02T02:46:06.519Z,7.26
2018-11-02T02:47:06.569Z,7.27
2018-11-02T02:48:06.589Z,7.27
2018-11-02T02:49:06.725Z,7.24
2018-11-02T02:50:06.666Z,7.21
2018-11-02T02:51:06.519Z,7.18
2018-11-02T02:52:06.491Z,7.16
2018-11-02T02:53:06.557Z,7.15
2018-11-02T02:54:06.500Z,7.12
2018-11-02T02:55:06.624Z,7.1
2018-11-02T02:56:09.081Z,7.1
2018-11-02T02:57:06.511Z,7.09
2018-11-02T02:58:06.769Z,7.07
2018-11-02T02:59:06.521Z,7.1
2018-11-02T03:00:06.564Z,7.07
2018-11-02T03:01:06.917Z,7.08
2018-11-02T03:02:06.720Z,7.06
2018-11-02T03:03:06.814Z,7.05
2018-11-02T03:04:06.611Z,7.06
2018-11-02T03:05:06.650Z,7.04
2018-11-02T03:06:08.846Z,7.05
2018-11-02T03:07:06.551Z,7.05
2018-11-02T03:08:06.726Z,7.04
2018-11-02T03:09:06.638Z,7.06
2018-11-02T03:10:06.610Z,7.04
2018-11-02T03:11:09.584Z,7.06
2018-11-02T03:12:06.621Z,7.06
2018-11-02T03:13:06.541Z,7.09
2018-11-02T03:14:06.484Z,7.09
2018-11-02T03:15:06.599Z,7.09
2018-11-02T03:16:08.349Z,7.11
2018-11-02T03:17:06.452Z,7.1
2018-11-02T03:18:06.871Z,7.1
2018-11-02T03:19:06.511Z,7.1
2018-11-02T03:20:06.639Z,7.09
2018-11-02T03:21:06.566Z,7.08
2018-11-02T03:22:06.628Z,7.09
2018-11-02T03:23:06.479Z,7.11
2018-11-02T03:24:06.561Z,7.11
2018-11-02T03:25:06.894Z,7.09
2018-11-02T03:26:08.479Z,7.1
2018-11-02T03:27:06.532Z,7.06
2018-11-02T03:28:06.534Z,7.06
2018-11-02T03:29:06.498Z,7.07
2018-11-02T03:30:06.820Z,7.05
2018-11-02T03:31:06.856Z,7.05
2018-11-02T03:32:06.869Z,7.05
2018-11-02T03:33:06.587Z,7.04
2018-11-02T03:34:06.578Z,7.02
2018-11-02T03:35:06.482Z,7.04
2018-11-02T03:36:08.647Z,7.04
2018-11-02T03:37:06.464Z,7.05
2018-11-02T03:38:06.502Z,7.06
2018-11-02T03:39:06.601Z,7.05
2018-11-02T03:40:06.608Z,7.06
2018-11-02T03:41:06.483Z,7.05
2018-11-02T03:42:06.419Z,7.06
2018-11-02T03:43:06.455Z,7.06
2018-11-02T03:44:06.473Z,7.07
2018-11-02T03:45:06.447Z,7.1
2018-11-02T03:46:08.235Z,7.07
2018-11-02T03:47:06.566Z,7.1
2018-11-02T03:48:06.495Z,7.11
2018-11-02T03:49:06.683Z,7.12
2018-11-02T03:50:06.525Z,7.13
2018-11-02T03:51:06.571Z,7.15
2018-11-02T03:52:06.530Z,7.13
2018-11-02T03:53:06.552Z,7.14
2018-11-02T03:54:06.460Z,7.16
2018-11-02T03:55:06.545Z,7.16
2018-11-02T03:56:07.415Z,7.2
2018-11-02T03:57:06.478Z,7.17
2018-11-02T03:58:06.497Z,7.18
2018-11-02T03:59:06.533Z,7.17
2018-11-02T04:00:06.484Z,7.18
2018-11-02T04:01:06.554Z,7.17
2018-11-02T04:02:06.439Z,7.16
2018-11-02T04:03:06.419Z,7.16
2018-11-02T04:04:06.787Z,7.17
2018-11-02T04:05:06.613Z,7.16
2018-11-02T04:06:06.495Z,7.07
2018-11-02T04:07:06.531Z,7.08
2018-11-02T04:08:06.373Z,7.1
2018-11-02T04:09:06.415Z,7.11
2018-11-02T04:10:06.539Z,7.13
2018-11-02T04:11:06.565Z,7.15
2018-11-02T04:12:06.482Z,7.13
2018-11-02T04:13:06.381Z,7.15
2018-11-02T04:14:06.417Z,7.14
2018-11-02T04:15:06.357Z,7.17
2018-11-02T04:16:06.370Z,7.18
2018-11-02T04:17:06.463Z,7.21
2018-11-02T04:18:06.407Z,7.22
2018-11-02T04:19:06.406Z,7.22
2018-11-02T04:20:06.460Z,7.23
2018-11-02T04:21:06.412Z,7.27
2018-11-02T04:22:06.410Z,7.27
2018-11-02T04:23:06.373Z,7.27
2018-11-02T04:24:06.465Z,7.25
2018-11-02T04:25:06.444Z,7.27
2018-11-02T04:26:06.503Z,7.27
2018-11-02T04:27:08.742Z,7.25
2018-11-02T04:28:06.414Z,7.27
2018-11-02T04:29:06.367Z,7.25
2018-11-02T04:30:06.369Z,7.27
2018-11-02T04:31:07.856Z,7.28
2018-11-02T04:32:06.571Z,7.28
2018-11-02T04:33:06.588Z,7.31
2018-11-02T04:34:06.415Z,7.32
2018-11-02T04:35:06.509Z,7.3
2018-11-02T04:36:06.528Z,7.32
2018-11-02T04:37:08.051Z,7.31
2018-11-02T04:38:06.518Z,7.31
2018-11-02T04:39:06.879Z,7.33
2018-11-02T04:40:06.407Z,7.3
2018-11-02T04:41:06.478Z,7.3
2018-11-02T04:42:06.674Z,7.32
2018-11-02T04:43:06.316Z,7.3
2018-11-02T04:44:06.602Z,7.3
2018-11-02T04:45:06.673Z,7.29
2018-11-02T04:46:06.406Z,7.29
2018-11-02T04:47:06.781Z,7.29
2018-11-02T04:48:06.322Z,7.29
2018-11-02T04:49:06.497Z,7.29
2018-11-02T04:50:06.415Z,7.29
2018-11-02T04:51:08.060Z,7.29
2018-11-02T04:52:06.697Z,7.29
2018-11-02T04:53:06.505Z,7.29
2018-11-02T04:54:06.590Z,7.32
2018-11-02T04:55:06.309Z,7.33
2018-11-02T04:56:07.756Z,7.33
2018-11-02T04:57:06.657Z,7.35
2018-11-02T04:58:06.450Z,7.36
2018-11-02T04:59:06.490Z,7.39
2018-11-02T05:00:06.528Z,7.37
2018-11-02T05:01:06.442Z,7.39
2018-11-02T05:02:06.458Z,7.4
2018-11-02T05:03:06.373Z,7.39
2018-11-02T05:04:06.342Z,7.4
2018-11-02T05:05:06.362Z,7.41
2018-11-02T05:06:06.264Z,7.39
2018-11-02T05:07:06.362Z,7.4
2018-11-02T05:08:09.540Z,7.4
2018-11-02T05:09:06.467Z,7.4
2018-11-02T05:10:06.656Z,7.39
2018-11-02T05:11:06.768Z,7.38
2018-11-02T05:12:06.330Z,7.4
2018-11-02T05:13:06.439Z,7.42
2018-11-02T05:14:06.400Z,7.41
2018-11-02T05:15:06.293Z,7.41
2018-11-02T05:16:06.438Z,7.4
2018-11-02T05:17:06.564Z,7.37
2018-11-02T05:18:08.648Z,7.39
2018-11-02T05:19:06.289Z,7.39
2018-11-02T05:20:06.505Z,7.38
2018-11-02T05:21:07.147Z,7.39
2018-11-02T05:22:06.316Z,7.38
2018-11-02T05:23:06.537Z,7.38
2018-11-02T05:24:06.374Z,7.36
2018-11-02T05:25:06.449Z,7.38
2018-11-02T05:26:07.213Z,7.34
2018-11-02T05:27:06.283Z,7.34
2018-11-02T05:28:08.051Z,7.32
2018-11-02T05:29:06.314Z,7.29
2018-11-02T05:30:06.270Z,7.28
2018-11-02T05:31:06.368Z,7.27
2018-11-02T05:32:06.258Z,7.25
2018-11-02T05:33:06.496Z,7.26
2018-11-02T05:34:06.276Z,7.21
2018-11-02T05:35:06.418Z,7.22
2018-11-02T05:36:06.428Z,7.2
2018-11-02T05:37:06.272Z,7.18
2018-11-02T05:38:06.307Z,7.2
2018-11-02T05:39:06.279Z,7.16
2018-11-02T05:40:06.618Z,7.15
2018-11-02T05:41:06.225Z,7.14
2018-11-02T05:42:06.235Z,7.15
2018-11-02T05:43:06.306Z,7.13
2018-11-02T05:44:06.280Z,7.14
2018-11-02T05:45:06.394Z,7.15
2018-11-02T05:46:06.265Z,7.16
2018-11-02T05:47:06.660Z,7.16
2018-11-02T05:48:06.226Z,7.16
2018-11-02T05:49:06.299Z,7.16
2018-11-02T05:50:06.265Z,7.16
2018-11-02T05:51:06.417Z,7.16
2018-11-02T05:52:06.311Z,7.16
2018-11-02T05:53:06.288Z,7.16
2018-11-02T05:54:07.428Z,7.13
2018-11-02T05:55:06.297Z,7.15
2018-11-02T05:56:06.322Z,7.15
2018-11-02T05:57:06.615Z,7.13
2018-11-02T05:58:06.209Z,7.1
2018-11-02T05:59:09.148Z,7.1
2018-11-02T06:00:06.469Z,7.06
2018-11-02T06:01:06.207Z,7.08
2018-11-02T06:02:06.229Z,7.05
2018-11-02T06:03:06.247Z,7.03
2018-11-02T06:04:06.495Z,7.03
2018-11-02T06:05:06.215Z,7.03
2018-11-02T06:06:06.291Z,7.02
2018-11-02T06:07:06.274Z,7.01
2018-11-02T06:08:07.916Z,7
2018-11-02T06:09:08.063Z,7.03
2018-11-02T06:10:06.233Z,7.02
2018-11-02T06:11:06.280Z,7
2018-11-02T06:12:06.324Z,7
2018-11-02T06:13:06.689Z,7.03
2018-11-02T06:14:06.483Z,7.03
2018-11-02T06:15:06.219Z,7.07
2018-11-02T06:16:06.333Z,7.04
2018-11-02T06:17:06.432Z,7.06
2018-11-02T06:18:06.191Z,7.08
2018-11-02T06:19:07.349Z,7.08
2018-11-02T06:20:06.193Z,7.09
2018-11-02T06:21:06.238Z,7.08
2018-11-02T06:22:06.171Z,7.08
2018-11-02T06:23:06.263Z,7.09
2018-11-02T06:24:06.886Z,7.09
2018-11-02T06:25:06.221Z,7.09
2018-11-02T06:26:06.172Z,7.1
2018-11-02T06:27:06.187Z,7.1
2018-11-02T06:28:06.597Z,7.11
2018-11-02T06:29:06.325Z,7.09
2018-11-02T06:30:06.157Z,7.03
2018-11-02T06:31:06.241Z,7.02
2018-11-02T06:32:06.312Z,7
2018-11-02T06:33:06.258Z,6.97
2018-11-02T06:34:06.356Z,6.96
2018-11-02T06:35:06.179Z,6.97
2018-11-02T06:36:06.212Z,6.94
2018-11-02T06:37:06.341Z,6.97
2018-11-02T06:38:06.432Z,6.96
2018-11-02T06:39:06.338Z,6.96
2018-11-02T06:40:08.724Z,6.96
2018-11-02T06:41:06.383Z,6.96
2018-11-02T06:42:06.259Z,6.92
2018-11-02T06:43:06.792Z,6.91
2018-11-02T06:44:06.394Z,6.87
2018-11-02T06:45:08.102Z,6.86
2018-11-02T06:46:06.211Z,6.87
2018-11-02T06:47:06.157Z,6.87
2018-11-02T06:48:06.230Z,6.86
2018-11-02T06:49:06.195Z,6.87
2018-11-02T06:50:06.492Z,6.9
2018-11-02T06:51:08.516Z,6.88
2018-11-02T06:52:06.142Z,6.9
2018-11-02T06:53:06.298Z,6.87
2018-11-02T06:54:06.316Z,6.9
2018-11-02T06:55:06.561Z,6.9
2018-11-02T06:56:06.216Z,6.92
2018-11-02T06:57:06.469Z,6.92
2018-11-02T06:58:06.309Z,6.94
2018-11-02T06:59:07.769Z,6.93
2018-11-02T07:00:09.583Z,6.94
2018-11-02T07:01:08.060Z,6.9
2018-11-02T07:02:06.289Z,6.91
2018-11-02T07:03:06.139Z,6.9
2018-11-02T07:04:06.164Z,6.9
2018-11-02T07:05:06.339Z,6.9
2018-11-02T07:06:06.304Z,6.9
2018-11-02T07:07:07.255Z,6.87
2018-11-02T07:08:09.107Z,6.9
2018-11-02T07:09:06.340Z,6.91
2018-11-02T07:10:06.155Z,6.9
2018-11-02T07:11:08.489Z,6.92
2018-11-02T07:12:06.200Z,6.92
2018-11-02T07:13:06.364Z,6.95
2018-11-02T07:14:06.150Z,6.96
2018-11-02T07:15:06.448Z,6.95
2018-11-02T07:16:06.186Z,6.93
2018-11-02T07:17:06.637Z,6.93
2018-11-02T07:18:06.171Z,6.95
2018-11-02T07:19:06.243Z,6.98
2018-11-02T07:20:06.245Z,6.98
2018-11-02T07:21:06.946Z,6.99
2018-11-02T07:22:06.088Z,7
2018-11-02T07:23:06.283Z,6.99
2018-11-02T07:24:06.412Z,7
2018-11-02T07:25:07.458Z,7.03
2018-11-02T07:26:06.346Z,7.03
2018-11-02T07:27:06.291Z,7.08
2018-11-02T07:28:06.142Z,7.08
2018-11-02T07:29:06.119Z,7.09
2018-11-02T07:30:06.107Z,7.13
2018-11-02T07:31:06.142Z,7.12
2018-11-02T07:32:08.691Z,7.14
2018-11-02T07:33:06.240Z,7.18
2018-11-02T07:34:06.782Z,7.2
2018-11-02T07:35:06.206Z,7.23
2018-11-02T07:36:06.168Z,7.25
2018-11-02T07:37:07.087Z,7.28
2018-11-02T07:38:06.255Z,7.28
2018-11-02T07:39:06.123Z,7.29
2018-11-02T07:40:06.166Z,7.33
2018-11-02T07:41:06.135Z,7.35
2018-11-02T07:42:07.561Z,7.36
2018-11-02T07:43:06.287Z,7.37
2018-11-02T07:44:06.207Z,7.41
2018-11-02T07:45:06.123Z,7.42
2018-11-02T07:46:06.221Z,7.43
2018-11-02T07:47:06.125Z,7.47
2018-11-02T07:48:06.034Z,7.48
2018-11-02T07:49:06.296Z,7.51
2018-11-02T07:50:06.111Z,7.53
2018-11-02T07:51:06.195Z,7.56
2018-11-02T07:52:06.179Z,7.56
2018-11-02T07:53:06.386Z,7.58
2018-11-02T07:54:06.200Z,7.61
2018-11-02T07:55:06.323Z,7.64
2018-11-02T07:56:06.203Z,7.65
2018-11-02T07:57:06.170Z,7.7
2018-11-02T07:58:06.160Z,7.71
2018-11-02T07:59:06.361Z,7.75
2018-11-02T08:00:06.325Z,7.78
2018-11-02T08:01:06.233Z,7.83
2018-11-02T08:02:06.159Z,7.85
2018-11-02T08:03:08.504Z,7.89
2018-11-02T08:04:06.367Z,7.91
2018-11-02T08:05:06.130Z,7.92
2018-11-02T08:06:06.163Z,7.96
2018-11-02T08:07:06.205Z,7.99
2018-11-02T08:08:06.156Z,8.01
2018-11-02T08:09:06.155Z,8.03
2018-11-02T08:10:06.263Z,8.07
2018-11-02T08:11:06.133Z,8.09
2018-11-02T08:12:06.090Z,8.14
2018-11-02T08:13:07.869Z,8.19
2018-11-02T08:14:06.260Z,8.22
2018-11-02T08:15:06.099Z,8.26
2018-11-02T08:16:05.983Z,8.32
2018-11-02T08:17:05.999Z,8.33
2018-11-02T08:18:06.094Z,8.4
2018-11-02T08:19:08.141Z,8.42
2018-11-02T08:20:06.199Z,8.45
2018-11-02T08:21:06.245Z,8.48
2018-11-02T08:22:06.049Z,8.52
2018-11-02T08:23:06.224Z,8.56
2018-11-02T08:24:06.051Z,8.59
2018-11-02T08:25:05.958Z,8.62
2018-11-02T08:26:06.093Z,8.63
2018-11-02T08:27:06.072Z,8.67
2018-11-02T08:28:06.154Z,8.7
2018-11-02T08:29:06.339Z,8.73
2018-11-02T08:30:06.171Z,8.74
2018-11-02T08:31:06.170Z,8.8
2018-11-02T08:32:06.955Z,8.87
2018-11-02T08:33:05.981Z,8.88
2018-11-02T08:34:06.003Z,8.89
2018-11-02T08:35:06.040Z,8.94
2018-11-02T08:36:05.986Z,8.93
2018-11-02T08:37:06.251Z,8.94
2018-11-02T08:38:06.224Z,8.98
2018-11-02T08:39:06.050Z,8.99
2018-11-02T08:40:06.238Z,9.04
2018-11-02T08:41:06.069Z,9.06
2018-11-02T08:42:05.947Z,9.07
2018-11-02T08:43:06.159Z,9.11
2018-11-02T08:44:06.110Z,9.14
2018-11-02T08:45:06.110Z,9.17
2018-11-02T08:46:06.283Z,9.18
2018-11-02T08:47:06.058Z,9.23
2018-11-02T08:48:06.204Z,9.24
2018-11-02T08:49:06.030Z,9.29
2018-11-02T08:50:06.208Z,9.29
2018-11-02T08:51:06.015Z,9.34
2018-11-02T08:52:06.381Z,9.35
2018-11-02T08:53:05.990Z,9.4
2018-11-02T08:54:06.005Z,9.45
2018-11-02T08:55:06.560Z,9.47
2018-11-02T08:56:06.052Z,9.48
2018-11-02T08:57:06.315Z,9.54
2018-11-02T08:58:09.890Z,9.57
2018-11-02T08:59:07.450Z,9.59
2018-11-02T09:00:06.788Z,9.65
2018-11-02T09:01:06.188Z,9.65
2018-11-02T09:02:06.783Z,9.65
2018-11-02T09:03:06.209Z,9.65
2018-11-02T09:04:06.232Z,9.68
2018-11-02T09:05:07.130Z,9.69
2018-11-02T09:06:06.240Z,9.74
2018-11-02T09:07:06.078Z,9.76
2018-11-02T09:08:05.953Z,9.78
2018-11-02T09:09:06.078Z,9.83
2018-11-02T09:10:06.160Z,9.83
2018-11-02T09:11:05.904Z,9.88
2018-11-02T09:12:06.847Z,9.93
2018-11-02T09:13:06.488Z,9.93
2018-11-02T09:14:05.918Z,9.96
2018-11-02T09:15:06.267Z,9.98
2018-11-02T09:16:06.025Z,9.98
2018-11-02T09:17:06.068Z,9.99
2018-11-02T09:18:05.952Z,10.02
2018-11-02T09:19:06.286Z,10.05
2018-11-02T09:20:05.985Z,10.07
2018-11-02T09:21:05.972Z,10.12
2018-11-02T09:22:06.073Z,10.13
2018-11-02T09:23:06.212Z,10.14
2018-11-02T09:24:06.113Z,10.19
2018-11-02T09:25:05.940Z,10.21
2018-11-02T09:26:06.216Z,10.25
2018-11-02T09:27:06.472Z,10.27
2018-11-02T09:28:08.430Z,10.31
2018-11-02T09:29:06.208Z,10.35
2018-11-02T09:30:06.060Z,10.39
2018-11-02T09:31:05.968Z,10.39
2018-11-02T09:32:05.902Z,10.42
2018-11-02T09:33:05.921Z,10.43
2018-11-02T09:34:06.239Z,10.47
2018-11-02T09:35:06.380Z,10.49
2018-11-02T09:36:05.910Z,10.5
2018-11-02T09:37:05.980Z,10.54
2018-11-02T09:38:06.028Z,10.56
2018-11-02T09:39:06.341Z,10.6
2018-11-02T09:40:06.329Z,10.62
2018-11-02T09:41:06.015Z,10.63
2018-11-02T09:42:08.192Z,10.63
2018-11-02T09:43:06.465Z,10.65
2018-11-02T09:44:06.159Z,10.68
2018-11-02T09:45:05.937Z,10.66
2018-11-02T09:46:05.978Z,10.7
2018-11-02T09:47:06.329Z,10.71
2018-11-02T09:48:06.189Z,10.72
2018-11-02T09:49:06.003Z,10.75
2018-11-02T09:50:05.977Z,10.78
2018-11-02T09:51:05.978Z,10.78
2018-11-02T09:52:09.120Z,10.82
2018-11-02T09:53:05.927Z,10.83
2018-11-02T09:54:05.995Z,10.88
2018-11-02T09:55:05.939Z,10.88
2018-11-02T09:56:06.056Z,10.9
2018-11-02T09:57:06.348Z,10.92
2018-11-02T09:58:06.270Z,10.93
2018-11-02T09:59:06.290Z,10.9
2018-11-02T10:00:06.094Z,10.92
2018-11-02T10:01:05.966Z,10.96
2018-11-02T10:02:08.400Z,10.97
2018-11-02T10:03:05.889Z,11.01
2018-11-02T10:04:05.975Z,11.05
2018-11-02T10:05:05.995Z,11.09
2018-11-02T10:06:06.055Z,11.13
2018-11-02T10:07:05.952Z,11.15
2018-11-02T10:08:06.251Z,11.22
2018-11-02T10:09:07.059Z,11.24
2018-11-02T10:10:06.292Z,11.29
2018-11-02T10:11:05.908Z,11.3
2018-11-02T10:12:07.895Z,11.31
2018-11-02T10:13:06.329Z,11.3
2018-11-02T10:14:06.319Z,11.3
2018-11-02T10:15:06.249Z,11.33
2018-11-02T10:16:05.996Z,11.3
2018-11-02T10:17:06.045Z,11.29
2018-11-02T10:18:05.995Z,11.3
2018-11-02T10:19:05.993Z,11.3
2018-11-02T10:20:06.055Z,11.31
2018-11-02T10:21:05.950Z,11.33
2018-11-02T10:22:08.075Z,11.36
2018-11-02T10:23:06.079Z,11.36
2018-11-02T10:24:06.006Z,11.4
2018-11-02T10:25:05.995Z,11.39
2018-11-02T10:26:06.254Z,11.38
2018-11-02T10:27:06.004Z,11.36
2018-11-02T10:28:06.482Z,11.37
2018-11-02T10:29:06.110Z,11.38
2018-11-02T10:30:05.917Z,11.39
2018-11-02T10:31:05.924Z,11.42
2018-11-02T10:32:07.833Z,11.47
2018-11-02T10:33:06.380Z,11.45
2018-11-02T10:34:06.084Z,11.43
2018-11-02T10:35:06.008Z,11.46
2018-11-02T10:36:07.128Z,11.44
2018-11-02T10:37:05.928Z,11.45
2018-11-02T10:38:06.153Z,11.47
2018-11-02T10:39:05.900Z,11.52
2018-11-02T10:40:05.921Z,11.53
2018-11-02T10:41:05.862Z,11.53
2018-11-02T10:42:07.654Z,11.52
2018-11-02T10:43:05.934Z,11.52
2018-11-02T10:44:06.343Z,11.53
2018-11-02T10:45:07.184Z,11.5
2018-11-02T10:46:05.949Z,11.54
2018-11-02T10:47:05.855Z,11.61
2018-11-02T10:48:05.954Z,11.6
2018-11-02T10:49:06.348Z,11.65
2018-11-02T10:50:05.944Z,11.75
2018-11-02T10:51:06.363Z,11.75
2018-11-02T10:52:08.292Z,11.71
2018-11-02T10:53:05.890Z,11.74
2018-11-02T10:54:05.986Z,11.77
2018-11-02T10:55:05.861Z,11.79
2018-11-02T10:56:05.959Z,11.81
2018-11-02T10:57:05.978Z,11.85
2018-11-02T10:58:06.075Z,11.87
2018-11-02T10:59:05.930Z,11.9
2018-11-02T11:00:05.877Z,11.95
2018-11-02T11:01:09.190Z,11.99
2018-11-02T11:02:08.363Z,12.02
2018-11-02T11:03:06.017Z,12.03
2018-11-02T11:04:05.883Z,12.08
2018-11-02T11:05:05.828Z,12.09
2018-11-02T11:06:05.874Z,12.13
2018-11-02T11:07:05.866Z,12.12
2018-11-02T11:08:06.327Z,12.17
2018-11-02T11:09:05.816Z,12.12
2018-11-02T11:10:05.849Z,12.14
2018-11-02T11:11:08.255Z,12.15
2018-11-02T11:12:09.259Z,12.19
2018-11-02T11:13:11.588Z,12.2
2018-11-02T11:14:06.040Z,12.21
2018-11-02T11:15:05.812Z,12.22
2018-11-02T11:16:05.914Z,12.25
2018-11-02T11:17:06.273Z,12.28
2018-11-02T11:18:05.907Z,12.3
2018-11-02T11:19:05.872Z,12.32
2018-11-02T11:20:06.278Z,12.35
2018-11-02T11:21:06.545Z,12.4
2018-11-02T11:22:08.413Z,12.41
2018-11-02T11:23:05.854Z,12.41
2018-11-02T11:24:05.928Z,12.43
2018-11-02T11:25:05.863Z,12.45
2018-11-02T11:26:06.087Z,12.44
2018-11-02T11:27:05.912Z,12.46
2018-11-02T11:28:05.928Z,12.52
2018-11-02T11:29:06.308Z,12.56
2018-11-02T11:30:05.891Z,12.59
2018-11-02T11:31:06.081Z,12.61
2018-11-02T11:32:08.472Z,12.65
2018-11-02T11:33:05.932Z,12.67
2018-11-02T11:34:06.204Z,12.71
2018-11-02T11:35:05.942Z,12.75
2018-11-02T11:36:05.935Z,12.76
2018-11-02T11:37:05.865Z,12.8
2018-11-02T11:38:05.915Z,12.82
2018-11-02T11:39:05.920Z,12.85
2018-11-02T11:40:05.978Z,12.86
2018-11-02T11:41:05.988Z,12.87
2018-11-02T11:42:05.878Z,12.87
2018-11-02T11:43:05.892Z,12.86
2018-11-02T11:44:05.853Z,12.85
2018-11-02T11:45:05.934Z,12.87
2018-11-02T11:46:05.958Z,12.89
2018-11-02T11:47:06.042Z,12.87
2018-11-02T11:48:06.180Z,12.9
2018-11-02T11:49:07.480Z,12.92
2018-11-02T11:50:05.953Z,12.94
2018-11-02T11:51:05.794Z,12.97
2018-11-02T11:52:05.830Z,12.99
2018-11-02T11:53:06.040Z,13.02
2018-11-02T11:54:05.970Z,13.04
2018-11-02T11:55:05.974Z,13.07
2018-11-02T11:56:05.822Z,13.07
2018-11-02T11:57:05.878Z,13.08
2018-11-02T11:58:06.011Z,13.1
2018-11-02T11:59:05.843Z,13.1
2018-11-02T12:00:05.852Z,13.1
2018-11-02T12:01:06.231Z,13.12
2018-11-02T12:02:06.730Z,13.15
2018-11-02T12:03:05.827Z,13.2
2018-11-02T12:04:06.045Z,13.24
2018-11-02T12:05:06.907Z,13.3
2018-11-02T12:06:05.866Z,13.31
2018-11-02T12:07:05.725Z,13.35
2018-11-02T12:08:05.844Z,13.38
2018-11-02T12:09:06.406Z,13.38
2018-11-02T12:10:06.310Z,13.37
2018-11-02T12:11:05.802Z,13.39
2018-11-02T12:12:05.763Z,13.38
2018-11-02T12:13:06.142Z,13.39
2018-11-02T12:14:05.853Z,13.37
2018-11-02T12:15:05.731Z,13.36
2018-11-02T12:16:07.840Z,13.36
2018-11-02T12:17:05.729Z,13.37
2018-11-02T12:18:05.732Z,13.38
2018-11-02T12:19:05.740Z,13.41
2018-11-02T12:20:05.785Z,13.41
2018-11-02T12:21:05.828Z,13.43
2018-11-02T12:22:06.680Z,13.43
2018-11-02T12:23:06.049Z,13.46
2018-11-02T12:24:05.812Z,13.48
2018-11-02T12:25:05.709Z,13.52
2018-11-02T12:26:05.818Z,13.49
2018-11-02T12:27:05.774Z,13.53
2018-11-02T12:28:06.463Z,13.53
2018-11-02T12:29:06.127Z,13.56
2018-11-02T12:30:05.815Z,13.56
2018-11-02T12:31:05.732Z,13.52
2018-11-02T12:32:08.085Z,13.51
2018-11-02T12:33:05.786Z,13.46
2018-11-02T12:34:05.722Z,13.47
2018-11-02T12:35:05.802Z,13.49
2018-11-02T12:36:05.760Z,13.49
2018-11-02T12:37:06.747Z,13.5
2018-11-02T12:38:05.865Z,13.56
2018-11-02T12:39:05.984Z,13.58
2018-11-02T12:40:05.850Z,13.59
2018-11-02T12:41:05.740Z,13.6
2018-11-02T12:42:08.201Z,13.61
2018-11-02T12:43:06.196Z,13.61
2018-11-02T12:44:05.924Z,13.63
2018-11-02T12:45:06.189Z,13.63
2018-11-02T12:46:05.984Z,13.7
2018-11-02T12:47:05.707Z,13.68
2018-11-02T12:48:08.302Z,13.72
2018-11-02T12:49:10.349Z,13.76
2018-11-02T12:50:06.878Z,13.82
2018-11-02T12:51:05.686Z,13.82
2018-11-02T12:52:07.604Z,13.88
2018-11-02T12:53:05.770Z,13.88
2018-11-02T12:54:05.908Z,13.92
2018-11-02T12:55:05.670Z,13.93
2018-11-02T12:56:05.713Z,13.97
2018-11-02T12:57:05.832Z,13.98
2018-11-02T12:58:05.707Z,14
2018-11-02T12:59:05.759Z,14.04
2018-11-02T13:00:05.693Z,14.03
2018-11-02T13:01:05.852Z,14.03
2018-11-02T13:02:06.085Z,14.04
2018-11-02T13:03:05.684Z,14.03
2018-11-02T13:04:05.696Z,14.04
2018-11-02T13:05:06.034Z,14
2018-11-02T13:06:05.851Z,13.99
2018-11-02T13:07:06.238Z,13.97
2018-11-02T13:08:05.731Z,13.93
2018-11-02T13:09:05.676Z,13.89
2018-11-02T13:10:05.724Z,13.88
2018-11-02T13:11:05.672Z,13.88
2018-11-02T13:12:05.953Z,13.86
2018-11-02T13:13:06.105Z,13.86
2018-11-02T13:14:05.650Z,13.85